sensor_id;sensor_type;location;lat;lon;timestamp;P1;durP1;ratioP1;P2;durP2;ratioP2
19883;SDS011;10104;50.732;10.174;2023-01-09T00:01:24;11.13;;;9.90;;
19883;SDS011;10104;50.732;10.174;2023-01-09T00:03:48;11.40;;;9.50;;
19883;SDS011;10104;50.732;10.174;2023-01-09T00:06:10;11.10;;;9.87;;
19883;SDS011;10104;50.732;10.174;2023-01-09T00:08:32;11.07;;;9.73;;
19883;SDS011;10104;50.732;10.174;2023-01-09T00:10:53;11.13;;;9.93;;
19883;SDS011;10104;50.732;10.174;2023-01-09T00:13:15;13.23;;;11.27;;
19883;SDS011;10104;50.732;10.174;2023-01-09T00:15:38;12.73;;;10.83;;
19883;SDS011;10104;50.732;10.174;2023-01-09T00:18:00;12.30;;;10.10;;
19883;SDS011;10104;50.732;10.174;2023-01-09T00:20:22;10.30;;;9.03;;
19883;SDS011;10104;50.732;10.174;2023-01-09T00:22:43;10.37;;;9.27;;
19883;SDS011;10104;50.732;10.174;2023-01-09T00:25:05;11.77;;;10.33;;
19883;SDS011;10104;50.732;10.174;2023-01-09T00:27:29;11.07;;;9.90;;
19883;SDS011;10104;50.732;10.174;2023-01-09T00:29:52;10.67;;;9.57;;
19883;SDS011;10104;50.732;10.174;2023-01-09T00:32:14;10.43;;;9.33;;
19883;SDS011;10104;50.732;10.174;2023-01-09T00:34:39;11.10;;;9.97;;
19883;SDS011;10104;50.732;10.174;2023-01-09T00:37:01;12.23;;;10.53;;
19883;SDS011;10104;50.732;10.174;2023-01-09T00:39:22;12.30;;;10.43;;
19883;SDS011;10104;50.732;10.174;2023-01-09T00:41:44;12.87;;;11.43;;
19883;SDS011;10104;50.732;10.174;2023-01-09T00:44:09;16.70;;;11.83;;
19883;SDS011;10104;50.732;10.174;2023-01-09T00:46:35;13.00;;;10.97;;
19883;SDS011;10104;50.732;10.174;2023-01-09T00:49:02;18.40;;;13.87;;
19883;SDS011;10104;50.732;10.174;2023-01-09T00:51:27;14.40;;;12.10;;
19883;SDS011;10104;50.732;10.174;2023-01-09T00:53:49;12.17;;;10.57;;
19883;SDS011;10104;50.732;10.174;2023-01-09T00:56:14;12.80;;;11.17;;
19883;SDS011;10104;50.732;10.174;2023-01-09T00:58:37;12.33;;;10.73;;
19883;SDS011;10104;50.732;10.174;2023-01-09T01:00:58;11.53;;;10.13;;
19883;SDS011;10104;50.732;10.174;2023-01-09T01:03:20;11.53;;;9.83;;
19883;SDS011;10104;50.732;10.174;2023-01-09T01:05:41;11.13;;;9.90;;
19883;SDS011;10104;50.732;10.174;2023-01-09T01:08:21;9.83;;;8.83;;
19883;SDS011;10104;50.732;10.174;2023-01-09T01:10:43;9.70;;;8.70;;
19883;SDS011;10104;50.732;10.174;2023-01-09T01:13:05;8.33;;;7.43;;
19883;SDS011;10104;50.732;10.174;2023-01-09T01:15:27;9.17;;;7.50;;
19883;SDS011;10104;50.732;10.174;2023-01-09T01:17:49;7.30;;;6.53;;
19883;SDS011;10104;50.732;10.174;2023-01-09T01:20:12;7.37;;;6.67;;
19883;SDS011;10104;50.732;10.174;2023-01-09T01:22:36;7.83;;;6.83;;
19883;SDS011;10104;50.732;10.174;2023-01-09T01:24:57;7.30;;;6.47;;
19883;SDS011;10104;50.732;10.174;2023-01-09T01:27:19;6.40;;;5.73;;
19883;SDS011;10104;50.732;10.174;2023-01-09T01:29:40;5.30;;;4.80;;
19883;SDS011;10104;50.732;10.174;2023-01-09T01:32:02;5.37;;;4.83;;
19883;SDS011;10104;50.732;10.174;2023-01-09T01:34:23;5.33;;;4.77;;
19883;SDS011;10104;50.732;10.174;2023-01-09T01:36:45;4.57;;;4.10;;
19883;SDS011;10104;50.732;10.174;2023-01-09T01:39:06;4.77;;;4.30;;
19883;SDS011;10104;50.732;10.174;2023-01-09T01:41:28;4.47;;;4.07;;
19883;SDS011;10104;50.732;10.174;2023-01-09T01:43:53;3.93;;;3.53;;
19883;SDS011;10104;50.732;10.174;2023-01-09T01:46:17;3.40;;;3.10;;
19883;SDS011;10104;50.732;10.174;2023-01-09T01:48:39;3.73;;;3.43;;
19883;SDS011;10104;50.732;10.174;2023-01-09T01:51:02;4.50;;;3.83;;
19883;SDS011;10104;50.732;10.174;2023-01-09T01:53:36;3.10;;;2.80;;
19883;SDS011;10104;50.732;10.174;2023-01-09T01:58:51;3.10;;;2.80;;
19883;SDS011;10104;50.732;10.174;2023-01-09T02:01:17;3.27;;;2.97;;
19883;SDS011;10104;50.732;10.174;2023-01-09T02:03:41;3.93;;;3.00;;
19883;SDS011;10104;50.732;10.174;2023-01-09T02:06:03;3.00;;;2.70;;
19883;SDS011;10104;50.732;10.174;2023-01-09T02:08:26;2.80;;;2.50;;
19883;SDS011;10104;50.732;10.174;2023-01-09T02:10:47;3.93;;;3.33;;
19883;SDS011;10104;50.732;10.174;2023-01-09T02:13:09;4.67;;;3.00;;
19883;SDS011;10104;50.732;10.174;2023-01-09T02:15:35;3.87;;;3.30;;
19883;SDS011;10104;50.732;10.174;2023-01-09T02:21:03;3.63;;;3.33;;
19883;SDS011;10104;50.732;10.174;2023-01-09T02:23:45;3.53;;;2.00;;
19883;SDS011;10104;50.732;10.174;2023-01-09T02:29:09;2.33;;;2.13;;
19883;SDS011;10104;50.732;10.174;2023-01-09T02:34:35;2.37;;;2.13;;
19883;SDS011;10104;50.732;10.174;2023-01-09T02:37:21;3.50;;;2.30;;
19883;SDS011;10104;50.732;10.174;2023-01-09T02:39:54;2.23;;;1.97;;
19883;SDS011;10104;50.732;10.174;2023-01-09T02:42:20;2.20;;;2.00;;
19883;SDS011;10104;50.732;10.174;2023-01-09T02:44:43;2.40;;;2.20;;
19883;SDS011;10104;50.732;10.174;2023-01-09T02:47:06;2.97;;;2.20;;
19883;SDS011;10104;50.732;10.174;2023-01-09T02:49:28;2.60;;;2.40;;
19883;SDS011;10104;50.732;10.174;2023-01-09T02:51:51;2.20;;;2.00;;
19883;SDS011;10104;50.732;10.174;2023-01-09T02:56:46;2.07;;;1.87;;
19883;SDS011;10104;50.732;10.174;2023-01-09T02:59:41;2.00;;;1.80;;
19883;SDS011;10104;50.732;10.174;2023-01-09T03:05:44;3.73;;;2.30;;
19883;SDS011;10104;50.732;10.174;2023-01-09T03:08:02;1.97;;;1.40;;
19883;SDS011;10104;50.732;10.174;2023-01-09T03:10:29;1.97;;;1.77;;
19883;SDS011;10104;50.732;10.174;2023-01-09T03:12:56;2.47;;;2.20;;
19883;SDS011;10104;50.732;10.174;2023-01-09T03:15:21;1.67;;;1.57;;
19883;SDS011;10104;50.732;10.174;2023-01-09T03:17:47;1.83;;;1.53;;
19883;SDS011;10104;50.732;10.174;2023-01-09T03:20:11;1.70;;;1.60;;
19883;SDS011;10104;50.732;10.174;2023-01-09T03:22:38;1.60;;;1.40;;
19883;SDS011;10104;50.732;10.174;2023-01-09T03:25:00;1.43;;;1.30;;
19883;SDS011;10104;50.732;10.174;2023-01-09T03:27:22;2.43;;;1.90;;
19883;SDS011;10104;50.732;10.174;2023-01-09T03:29:43;1.53;;;1.40;;
19883;SDS011;10104;50.732;10.174;2023-01-09T03:32:05;3.17;;;2.00;;
19883;SDS011;10104;50.732;10.174;2023-01-09T03:34:26;2.70;;;2.40;;
19883;SDS011;10104;50.732;10.174;2023-01-09T03:36:47;1.47;;;1.37;;
19883;SDS011;10104;50.732;10.174;2023-01-09T03:39:09;1.60;;;1.40;;
19883;SDS011;10104;50.732;10.174;2023-01-09T03:41:30;1.67;;;1.20;;
19883;SDS011;10104;50.732;10.174;2023-01-09T03:43:52;3.20;;;1.73;;
19883;SDS011;10104;50.732;10.174;2023-01-09T03:46:14;3.10;;;1.80;;
19883;SDS011;10104;50.732;10.174;2023-01-09T03:48:36;2.93;;;1.90;;
19883;SDS011;10104;50.732;10.174;2023-01-09T03:50:57;1.80;;;1.60;;
19883;SDS011;10104;50.732;10.174;2023-01-09T03:53:19;2.03;;;1.50;;
19883;SDS011;10104;50.732;10.174;2023-01-09T03:55:44;2.10;;;1.83;;
19883;SDS011;10104;50.732;10.174;2023-01-09T03:58:06;2.67;;;2.37;;
19883;SDS011;10104;50.732;10.174;2023-01-09T04:00:28;1.77;;;1.60;;
19883;SDS011;10104;50.732;10.174;2023-01-09T04:02:49;1.83;;;1.60;;
19883;SDS011;10104;50.732;10.174;2023-01-09T04:05:11;1.83;;;1.60;;
19883;SDS011;10104;50.732;10.174;2023-01-09T04:07:32;1.63;;;1.50;;
19883;SDS011;10104;50.732;10.174;2023-01-09T04:09:54;1.97;;;1.77;;
19883;SDS011;10104;50.732;10.174;2023-01-09T04:12:15;2.50;;;2.20;;
19883;SDS011;10104;50.732;10.174;2023-01-09T04:14:36;2.67;;;2.17;;
19883;SDS011;10104;50.732;10.174;2023-01-09T04:16:58;2.37;;;2.13;;
19883;SDS011;10104;50.732;10.174;2023-01-09T04:19:19;2.67;;;1.83;;
19883;SDS011;10104;50.732;10.174;2023-01-09T04:21:41;1.27;;;1.17;;
19883;SDS011;10104;50.732;10.174;2023-01-09T04:24:02;1.90;;;1.50;;
19883;SDS011;10104;50.732;10.174;2023-01-09T04:26:24;1.63;;;1.33;;
19883;SDS011;10104;50.732;10.174;2023-01-09T04:28:46;2.17;;;1.27;;
19883;SDS011;10104;50.732;10.174;2023-01-09T04:31:08;1.70;;;1.30;;
19883;SDS011;10104;50.732;10.174;2023-01-09T04:33:29;1.40;;;1.30;;
19883;SDS011;10104;50.732;10.174;2023-01-09T04:35:51;1.10;;;1.00;;
19883;SDS011;10104;50.732;10.174;2023-01-09T04:38:12;2.70;;;1.20;;
19883;SDS011;10104;50.732;10.174;2023-01-09T04:40:34;1.37;;;1.10;;
19883;SDS011;10104;50.732;10.174;2023-01-09T04:42:55;1.50;;;1.10;;
19883;SDS011;10104;50.732;10.174;2023-01-09T04:45:17;1.07;;;1.00;;
19883;SDS011;10104;50.732;10.174;2023-01-09T04:47:38;1.00;;;0.90;;
19883;SDS011;10104;50.732;10.174;2023-01-09T04:50:00;1.30;;;1.20;;
19883;SDS011;10104;50.732;10.174;2023-01-09T04:52:21;1.20;;;1.10;;
19883;SDS011;10104;50.732;10.174;2023-01-09T04:54:44;1.20;;;1.10;;
19883;SDS011;10104;50.732;10.174;2023-01-09T04:57:05;1.30;;;1.20;;
19883;SDS011;10104;50.732;10.174;2023-01-09T04:59:27;1.10;;;0.90;;
19883;SDS011;10104;50.732;10.174;2023-01-09T05:01:48;2.50;;;0.80;;
19883;SDS011;10104;50.732;10.174;2023-01-09T05:04:12;1.17;;;0.90;;
19883;SDS011;10104;50.732;10.174;2023-01-09T05:06:34;1.03;;;0.70;;
19883;SDS011;10104;50.732;10.174;2023-01-09T05:08:56;0.97;;;0.87;;
19883;SDS011;10104;50.732;10.174;2023-01-09T05:11:17;2.43;;;0.97;;
19883;SDS011;10104;50.732;10.174;2023-01-09T05:13:39;1.07;;;0.83;;
19883;SDS011;10104;50.732;10.174;2023-01-09T05:16:00;0.63;;;0.60;;
19883;SDS011;10104;50.732;10.174;2023-01-09T05:18:22;1.00;;;0.90;;
19883;SDS011;10104;50.732;10.174;2023-01-09T05:20:44;0.60;;;0.60;;
19883;SDS011;10104;50.732;10.174;2023-01-09T05:23:05;1.10;;;0.70;;
19883;SDS011;10104;50.732;10.174;2023-01-09T05:25:26;1.73;;;1.00;;
19883;SDS011;10104;50.732;10.174;2023-01-09T05:27:48;1.83;;;0.90;;
19883;SDS011;10104;50.732;10.174;2023-01-09T05:30:10;1.17;;;0.80;;
19883;SDS011;10104;50.732;10.174;2023-01-09T05:32:34;1.93;;;0.77;;
19883;SDS011;10104;50.732;10.174;2023-01-09T05:34:55;0.90;;;0.70;;
19883;SDS011;10104;50.732;10.174;2023-01-09T05:37:17;0.80;;;0.60;;
19883;SDS011;10104;50.732;10.174;2023-01-09T05:39:38;0.87;;;0.77;;
19883;SDS011;10104;50.732;10.174;2023-01-09T05:42:00;0.73;;;0.73;;
19883;SDS011;10104;50.732;10.174;2023-01-09T05:44:21;1.10;;;0.70;;
19883;SDS011;10104;50.732;10.174;2023-01-09T05:46:43;1.03;;;0.60;;
19883;SDS011;10104;50.732;10.174;2023-01-09T05:49:04;1.07;;;0.73;;
19883;SDS011;10104;50.732;10.174;2023-01-09T05:51:26;1.10;;;0.90;;
19883;SDS011;10104;50.732;10.174;2023-01-09T05:53:47;0.60;;;0.60;;
19883;SDS011;10104;50.732;10.174;2023-01-09T05:56:09;0.70;;;0.70;;
19883;SDS011;10104;50.732;10.174;2023-01-09T05:58:32;0.67;;;0.67;;
19883;SDS011;10104;50.732;10.174;2023-01-09T06:00:53;0.50;;;0.50;;
19883;SDS011;10104;50.732;10.174;2023-01-09T06:03:15;0.80;;;0.70;;
19883;SDS011;10104;50.732;10.174;2023-01-09T06:05:36;0.50;;;0.50;;
19883;SDS011;10104;50.732;10.174;2023-01-09T06:07:58;1.27;;;0.63;;
19883;SDS011;10104;50.732;10.174;2023-01-09T06:10:19;0.53;;;0.50;;
19883;SDS011;10104;50.732;10.174;2023-01-09T06:12:41;1.70;;;0.77;;
19883;SDS011;10104;50.732;10.174;2023-01-09T06:15:06;0.77;;;0.60;;
19883;SDS011;10104;50.732;10.174;2023-01-09T06:17:29;2.53;;;0.70;;
19883;SDS011;10104;50.732;10.174;2023-01-09T06:19:50;0.90;;;0.70;;
19883;SDS011;10104;50.732;10.174;2023-01-09T06:22:12;1.87;;;0.90;;
19883;SDS011;10104;50.732;10.174;2023-01-09T06:24:33;0.67;;;0.50;;
19883;SDS011;10104;50.732;10.174;2023-01-09T06:26:55;0.83;;;0.50;;
19883;SDS011;10104;50.732;10.174;2023-01-09T06:29:16;2.53;;;0.70;;
19883;SDS011;10104;50.732;10.174;2023-01-09T06:31:38;3.23;;;0.70;;
19883;SDS011;10104;50.732;10.174;2023-01-09T06:33:59;3.10;;;0.63;;
19883;SDS011;10104;50.732;10.174;2023-01-09T06:36:21;1.67;;;0.90;;
19883;SDS011;10104;50.732;10.174;2023-01-09T06:38:43;0.50;;;0.50;;
19883;SDS011;10104;50.732;10.174;2023-01-09T06:41:04;0.97;;;0.80;;
19883;SDS011;10104;50.732;10.174;2023-01-09T06:43:26;1.43;;;0.63;;
19883;SDS011;10104;50.732;10.174;2023-01-09T06:45:48;1.70;;;0.77;;
19883;SDS011;10104;50.732;10.174;2023-01-09T06:48:10;0.70;;;0.50;;
19883;SDS011;10104;50.732;10.174;2023-01-09T06:50:32;3.77;;;0.70;;
19883;SDS011;10104;50.732;10.174;2023-01-09T06:52:54;2.03;;;0.87;;
19883;SDS011;10104;50.732;10.174;2023-01-09T06:55:15;2.13;;;0.60;;
19883;SDS011;10104;50.732;10.174;2023-01-09T06:57:37;2.43;;;0.60;;
19883;SDS011;10104;50.732;10.174;2023-01-09T06:59:59;1.27;;;0.67;;
19883;SDS011;10104;50.732;10.174;2023-01-09T07:04:50;1.10;;;0.70;;
19883;SDS011;10104;50.732;10.174;2023-01-09T07:07:12;2.57;;;0.60;;
19883;SDS011;10104;50.732;10.174;2023-01-09T07:09:36;1.73;;;0.60;;
19883;SDS011;10104;50.732;10.174;2023-01-09T07:11:57;1.33;;;0.77;;
19883;SDS011;10104;50.732;10.174;2023-01-09T07:14:19;2.13;;;0.60;;
19883;SDS011;10104;50.732;10.174;2023-01-09T07:16:40;2.50;;;0.60;;
19883;SDS011;10104;50.732;10.174;2023-01-09T07:19:01;0.97;;;0.60;;
19883;SDS011;10104;50.732;10.174;2023-01-09T07:21:23;0.47;;;0.47;;
19883;SDS011;10104;50.732;10.174;2023-01-09T07:23:44;0.93;;;0.70;;
19883;SDS011;10104;50.732;10.174;2023-01-09T07:26:06;0.50;;;0.50;;
19883;SDS011;10104;50.732;10.174;2023-01-09T07:28:27;1.70;;;0.70;;
19883;SDS011;10104;50.732;10.174;2023-01-09T07:30:49;1.50;;;0.60;;
19883;SDS011;10104;50.732;10.174;2023-01-09T07:33:10;2.20;;;0.60;;
19883;SDS011;10104;50.732;10.174;2023-01-09T07:35:32;1.03;;;0.60;;
19883;SDS011;10104;50.732;10.174;2023-01-09T07:37:54;1.23;;;0.73;;
19883;SDS011;10104;50.732;10.174;2023-01-09T07:40:15;2.17;;;0.70;;
19883;SDS011;10104;50.732;10.174;2023-01-09T07:42:37;1.93;;;0.53;;
19883;SDS011;10104;50.732;10.174;2023-01-09T07:44:58;2.17;;;0.70;;
19883;SDS011;10104;50.732;10.174;2023-01-09T07:47:20;2.13;;;0.90;;
19883;SDS011;10104;50.732;10.174;2023-01-09T07:49:41;0.93;;;0.77;;
19883;SDS011;10104;50.732;10.174;2023-01-09T07:52:03;1.43;;;1.07;;
19883;SDS011;10104;50.732;10.174;2023-01-09T07:54:25;1.73;;;0.83;;
19883;SDS011;10104;50.732;10.174;2023-01-09T07:56:46;0.97;;;0.77;;
19883;SDS011;10104;50.732;10.174;2023-01-09T07:59:08;2.03;;;1.00;;
19883;SDS011;10104;50.732;10.174;2023-01-09T08:01:29;1.10;;;0.97;;
19883;SDS011;10104;50.732;10.174;2023-01-09T08:03:51;0.90;;;0.80;;
19883;SDS011;10104;50.732;10.174;2023-01-09T08:06:12;2.73;;;1.20;;
19883;SDS011;10104;50.732;10.174;2023-01-09T08:08:34;2.90;;;1.07;;
19883;SDS011;10104;50.732;10.174;2023-01-09T08:10:55;2.20;;;0.93;;
19883;SDS011;10104;50.732;10.174;2023-01-09T08:13:17;3.13;;;1.00;;
19883;SDS011;10104;50.732;10.174;2023-01-09T08:15:38;2.40;;;1.10;;
19883;SDS011;10104;50.732;10.174;2023-01-09T08:18:00;1.30;;;1.03;;
19883;SDS011;10104;50.732;10.174;2023-01-09T08:20:21;1.23;;;0.97;;
19883;SDS011;10104;50.732;10.174;2023-01-09T08:22:44;2.57;;;1.10;;
19883;SDS011;10104;50.732;10.174;2023-01-09T08:25:10;1.53;;;0.93;;
19883;SDS011;10104;50.732;10.174;2023-01-09T08:27:32;2.23;;;1.00;;
19883;SDS011;10104;50.732;10.174;2023-01-09T08:29:54;3.30;;;1.20;;
19883;SDS011;10104;50.732;10.174;2023-01-09T08:32:15;1.20;;;1.10;;
19883;SDS011;10104;50.732;10.174;2023-01-09T08:34:37;3.10;;;1.37;;
19883;SDS011;10104;50.732;10.174;2023-01-09T08:36:58;1.83;;;1.33;;
19883;SDS011;10104;50.732;10.174;2023-01-09T08:39:20;3.20;;;1.30;;
19883;SDS011;10104;50.732;10.174;2023-01-09T08:41:41;1.93;;;1.27;;
19883;SDS011;10104;50.732;10.174;2023-01-09T08:44:21;2.33;;;1.43;;
19883;SDS011;10104;50.732;10.174;2023-01-09T08:47:01;2.10;;;1.40;;
19883;SDS011;10104;50.732;10.174;2023-01-09T08:49:26;3.80;;;1.10;;
19883;SDS011;10104;50.732;10.174;2023-01-09T08:51:47;4.43;;;1.40;;
19883;SDS011;10104;50.732;10.174;2023-01-09T08:54:08;3.37;;;1.40;;
19883;SDS011;10104;50.732;10.174;2023-01-09T08:56:30;2.43;;;1.20;;
19883;SDS011;10104;50.732;10.174;2023-01-09T08:58:51;2.60;;;1.20;;
19883;SDS011;10104;50.732;10.174;2023-01-09T09:01:13;4.33;;;1.40;;
19883;SDS011;10104;50.732;10.174;2023-01-09T09:03:34;3.00;;;1.37;;
19883;SDS011;10104;50.732;10.174;2023-01-09T09:05:56;3.93;;;1.30;;
19883;SDS011;10104;50.732;10.174;2023-01-09T09:08:17;3.67;;;0.90;;
19883;SDS011;10104;50.732;10.174;2023-01-09T09:10:40;5.13;;;1.10;;
19883;SDS011;10104;50.732;10.174;2023-01-09T09:13:02;2.50;;;1.00;;
19883;SDS011;10104;50.732;10.174;2023-01-09T09:15:24;3.97;;;1.40;;
19883;SDS011;10104;50.732;10.174;2023-01-09T09:17:47;5.23;;;1.40;;
19883;SDS011;10104;50.732;10.174;2023-01-09T09:20:14;1.63;;;0.90;;
19883;SDS011;10104;50.732;10.174;2023-01-09T09:22:36;1.53;;;1.17;;
19883;SDS011;10104;50.732;10.174;2023-01-09T09:24:57;2.10;;;1.00;;
19883;SDS011;10104;50.732;10.174;2023-01-09T09:27:19;1.27;;;0.97;;
19883;SDS011;10104;50.732;10.174;2023-01-09T09:29:40;1.10;;;0.80;;
19883;SDS011;10104;50.732;10.174;2023-01-09T09:32:02;3.27;;;0.97;;
19883;SDS011;10104;50.732;10.174;2023-01-09T09:34:23;2.43;;;0.80;;
19883;SDS011;10104;50.732;10.174;2023-01-09T09:36:45;2.30;;;0.80;;
19883;SDS011;10104;50.732;10.174;2023-01-09T09:39:06;1.37;;;0.70;;
19883;SDS011;10104;50.732;10.174;2023-01-09T09:42:12;1.27;;;0.70;;
19883;SDS011;10104;50.732;10.174;2023-01-09T09:47:32;1.10;;;0.70;;
19883;SDS011;10104;50.732;10.174;2023-01-09T09:53:18;2.13;;;0.90;;
19883;SDS011;10104;50.732;10.174;2023-01-09T09:55:45;1.17;;;0.63;;
19883;SDS011;10104;50.732;10.174;2023-01-09T09:58:28;1.47;;;0.80;;
19883;SDS011;10104;50.732;10.174;2023-01-09T10:00:57;1.03;;;0.70;;
19883;SDS011;10104;50.732;10.174;2023-01-09T10:05:54;2.43;;;0.60;;
19883;SDS011;10104;50.732;10.174;2023-01-09T10:10:58;1.53;;;0.70;;
19883;SDS011;10104;50.732;10.174;2023-01-09T10:13:22;1.10;;;0.80;;
19883;SDS011;10104;50.732;10.174;2023-01-09T10:16:06;1.40;;;0.80;;
19883;SDS011;10104;50.732;10.174;2023-01-09T10:27:16;1.00;;;0.70;;
19883;SDS011;10104;50.732;10.174;2023-01-09T10:38:07;2.47;;;0.80;;
19883;SDS011;10104;50.732;10.174;2023-01-09T10:40:38;1.47;;;0.90;;
19883;SDS011;10104;50.732;10.174;2023-01-09T10:45:57;0.87;;;0.63;;
19883;SDS011;10104;50.732;10.174;2023-01-09T10:50:52;1.00;;;0.60;;
19883;SDS011;10104;50.732;10.174;2023-01-09T10:53:20;0.87;;;0.60;;
19883;SDS011;10104;50.732;10.174;2023-01-09T10:58:15;2.40;;;0.77;;
19883;SDS011;10104;50.732;10.174;2023-01-09T11:00:39;1.43;;;0.50;;
19883;SDS011;10104;50.732;10.174;2023-01-09T11:03:01;1.90;;;0.77;;
19883;SDS011;10104;50.732;10.174;2023-01-09T11:05:24;1.03;;;0.70;;
19883;SDS011;10104;50.732;10.174;2023-01-09T11:07:50;1.57;;;0.70;;
19883;SDS011;10104;50.732;10.174;2023-01-09T11:10:16;3.40;;;0.70;;
19883;SDS011;10104;50.732;10.174;2023-01-09T11:12:38;1.13;;;0.60;;
19883;SDS011;10104;50.732;10.174;2023-01-09T11:15:43;3.53;;;0.90;;
19883;SDS011;10104;50.732;10.174;2023-01-09T11:17:49;0.97;;;0.70;;
19883;SDS011;10104;50.732;10.174;2023-01-09T11:20:16;2.27;;;0.80;;
19883;SDS011;10104;50.732;10.174;2023-01-09T11:22:41;1.30;;;0.80;;
19883;SDS011;10104;50.732;10.174;2023-01-09T11:25:09;2.60;;;0.83;;
19883;SDS011;10104;50.732;10.174;2023-01-09T11:27:32;2.83;;;0.90;;
19883;SDS011;10104;50.732;10.174;2023-01-09T11:32:37;2.67;;;0.70;;
19883;SDS011;10104;50.732;10.174;2023-01-09T11:34:58;1.47;;;0.80;;
19883;SDS011;10104;50.732;10.174;2023-01-09T11:37:22;1.30;;;0.83;;
19883;SDS011;10104;50.732;10.174;2023-01-09T11:39:46;1.80;;;0.87;;
19883;SDS011;10104;50.732;10.174;2023-01-09T11:42:16;5.07;;;1.10;;
19883;SDS011;10104;50.732;10.174;2023-01-09T11:45:00;1.37;;;0.97;;
19883;SDS011;10104;50.732;10.174;2023-01-09T11:47:23;3.50;;;1.20;;
19883;SDS011;10104;50.732;10.174;2023-01-09T11:50:07;3.03;;;1.20;;
19883;SDS011;10104;50.732;10.174;2023-01-09T11:52:39;2.67;;;1.10;;
19883;SDS011;10104;50.732;10.174;2023-01-09T11:55:04;1.83;;;0.90;;
19883;SDS011;10104;50.732;10.174;2023-01-09T11:57:32;3.13;;;1.10;;
19883;SDS011;10104;50.732;10.174;2023-01-09T11:59:55;2.83;;;1.00;;
19883;SDS011;10104;50.732;10.174;2023-01-09T12:02:44;1.97;;;0.80;;
19883;SDS011;10104;50.732;10.174;2023-01-09T12:05:35;3.20;;;1.00;;
19883;SDS011;10104;50.732;10.174;2023-01-09T12:08:25;1.47;;;1.00;;
19883;SDS011;10104;50.732;10.174;2023-01-09T12:11:30;1.87;;;0.90;;
19883;SDS011;10104;50.732;10.174;2023-01-09T12:16:48;4.00;;;1.07;;
19883;SDS011;10104;50.732;10.174;2023-01-09T12:22:16;2.50;;;0.80;;
19883;SDS011;10104;50.732;10.174;2023-01-09T12:24:56;3.13;;;1.00;;
19883;SDS011;10104;50.732;10.174;2023-01-09T12:36:00;2.17;;;0.87;;
19883;SDS011;10104;50.732;10.174;2023-01-09T12:38:47;2.17;;;0.90;;
19883;SDS011;10104;50.732;10.174;2023-01-09T12:44:03;3.57;;;1.10;;
19883;SDS011;10104;50.732;10.174;2023-01-09T12:47:41;1.80;;;1.00;;
19883;SDS011;10104;50.732;10.174;2023-01-09T12:52:35;2.40;;;1.00;;
19883;SDS011;10104;50.732;10.174;2023-01-09T12:55:05;4.80;;;1.20;;
19883;SDS011;10104;50.732;10.174;2023-01-09T12:57:35;2.20;;;0.90;;
19883;SDS011;10104;50.732;10.174;2023-01-09T13:00:20;2.57;;;0.90;;
19883;SDS011;10104;50.732;10.174;2023-01-09T13:05:21;2.80;;;0.90;;
19883;SDS011;10104;50.732;10.174;2023-01-09T13:07:48;2.93;;;0.90;;
19883;SDS011;10104;50.732;10.174;2023-01-09T13:10:18;4.50;;;0.80;;
19883;SDS011;10104;50.732;10.174;2023-01-09T13:12:56;1.53;;;0.80;;
19883;SDS011;10104;50.732;10.174;2023-01-09T13:15:34;2.27;;;1.00;;
19883;SDS011;10104;50.732;10.174;2023-01-09T13:18:04;1.60;;;0.90;;
19883;SDS011;10104;50.732;10.174;2023-01-09T13:23:08;1.83;;;0.80;;
19883;SDS011;10104;50.732;10.174;2023-01-09T13:25:38;2.53;;;0.80;;
19883;SDS011;10104;50.732;10.174;2023-01-09T13:28:06;2.70;;;0.90;;
19883;SDS011;10104;50.732;10.174;2023-01-09T13:33:34;2.33;;;0.97;;
19883;SDS011;10104;50.732;10.174;2023-01-09T13:35:59;1.10;;;0.60;;
19883;SDS011;10104;50.732;10.174;2023-01-09T13:38:24;2.53;;;1.10;;
19883;SDS011;10104;50.732;10.174;2023-01-09T13:40:59;2.53;;;1.00;;
19883;SDS011;10104;50.732;10.174;2023-01-09T13:43:52;3.43;;;1.00;;
19883;SDS011;10104;50.732;10.174;2023-01-09T13:46:15;1.80;;;1.07;;
19883;SDS011;10104;50.732;10.174;2023-01-09T13:48:37;2.83;;;1.10;;
19883;SDS011;10104;50.732;10.174;2023-01-09T13:54:29;2.20;;;1.00;;
19883;SDS011;10104;50.732;10.174;2023-01-09T13:57:34;1.33;;;0.70;;
19883;SDS011;10104;50.732;10.174;2023-01-09T14:05:03;5.33;;;3.27;;
19883;SDS011;10104;50.732;10.174;2023-01-09T14:07:32;2.33;;;1.13;;
19883;SDS011;10104;50.732;10.174;2023-01-09T14:10:04;2.43;;;0.90;;
19883;SDS011;10104;50.732;10.174;2023-01-09T14:12:40;5.13;;;1.10;;
19883;SDS011;10104;50.732;10.174;2023-01-09T14:15:03;3.63;;;1.10;;
19883;SDS011;10104;50.732;10.174;2023-01-09T14:17:28;1.40;;;0.70;;
19883;SDS011;10104;50.732;10.174;2023-01-09T14:19:54;3.47;;;0.90;;
19883;SDS011;10104;50.732;10.174;2023-01-09T14:22:51;1.37;;;0.83;;
19883;SDS011;10104;50.732;10.174;2023-01-09T14:25:19;1.50;;;0.90;;
19883;SDS011;10104;50.732;10.174;2023-01-09T14:30:15;1.20;;;0.87;;
19883;SDS011;10104;50.732;10.174;2023-01-09T14:38:47;1.67;;;0.90;;
19883;SDS011;10104;50.732;10.174;2023-01-09T14:46:07;1.53;;;0.80;;
19883;SDS011;10104;50.732;10.174;2023-01-09T14:48:32;1.23;;;0.80;;
19883;SDS011;10104;50.732;10.174;2023-01-09T14:50:56;4.30;;;0.97;;
19883;SDS011;10104;50.732;10.174;2023-01-09T14:53:21;2.87;;;0.97;;
19883;SDS011;10104;50.732;10.174;2023-01-09T15:03:32;1.70;;;0.83;;
19883;SDS011;10104;50.732;10.174;2023-01-09T15:05:58;1.13;;;0.73;;
19883;SDS011;10104;50.732;10.174;2023-01-09T15:08:21;2.37;;;1.10;;
19883;SDS011;10104;50.732;10.174;2023-01-09T15:10:46;1.60;;;0.90;;
19883;SDS011;10104;50.732;10.174;2023-01-09T15:13:11;2.53;;;0.80;;
19883;SDS011;10104;50.732;10.174;2023-01-09T15:15:42;1.30;;;0.73;;
19883;SDS011;10104;50.732;10.174;2023-01-09T15:18:05;2.13;;;1.00;;
19883;SDS011;10104;50.732;10.174;2023-01-09T15:20:31;4.27;;;0.90;;
19883;SDS011;10104;50.732;10.174;2023-01-09T15:22:53;2.27;;;0.73;;
19883;SDS011;10104;50.732;10.174;2023-01-09T15:25:23;1.20;;;0.80;;
19883;SDS011;10104;50.732;10.174;2023-01-09T15:28:00;2.33;;;1.00;;
19883;SDS011;10104;50.732;10.174;2023-01-09T15:30:40;3.23;;;1.80;;
19883;SDS011;10104;50.732;10.174;2023-01-09T15:33:12;4.00;;;1.73;;
19883;SDS011;10104;50.732;10.174;2023-01-09T15:35:41;2.40;;;1.10;;
19883;SDS011;10104;50.732;10.174;2023-01-09T15:38:05;2.27;;;0.97;;
19883;SDS011;10104;50.732;10.174;2023-01-09T15:40:30;1.97;;;0.80;;
19883;SDS011;10104;50.732;10.174;2023-01-09T15:42:53;2.37;;;1.23;;
19883;SDS011;10104;50.732;10.174;2023-01-09T15:47:42;2.07;;;0.90;;
19883;SDS011;10104;50.732;10.174;2023-01-09T15:50:03;3.20;;;1.77;;
19883;SDS011;10104;50.732;10.174;2023-01-09T15:52:26;2.00;;;1.50;;
19883;SDS011;10104;50.732;10.174;2023-01-09T15:54:47;2.40;;;1.20;;
19883;SDS011;10104;50.732;10.174;2023-01-09T15:59:46;2.07;;;1.60;;
19883;SDS011;10104;50.732;10.174;2023-01-09T16:02:08;2.73;;;1.23;;
19883;SDS011;10104;50.732;10.174;2023-01-09T16:04:53;2.03;;;1.03;;
19883;SDS011;10104;50.732;10.174;2023-01-09T16:07:17;2.13;;;1.33;;
19883;SDS011;10104;50.732;10.174;2023-01-09T16:09:42;4.50;;;1.90;;
19883;SDS011;10104;50.732;10.174;2023-01-09T16:12:05;5.20;;;1.80;;
19883;SDS011;10104;50.732;10.174;2023-01-09T16:14:31;2.07;;;1.43;;
19883;SDS011;10104;50.732;10.174;2023-01-09T16:16:58;2.00;;;0.90;;
19883;SDS011;10104;50.732;10.174;2023-01-09T16:24:51;2.23;;;1.13;;
19883;SDS011;10104;50.732;10.174;2023-01-09T16:27:24;2.30;;;1.20;;
19883;SDS011;10104;50.732;10.174;2023-01-09T16:29:56;4.60;;;1.20;;